createdAt,value
2019-03-19T14:39:04.897Z,22.67
2019-03-19T14:40:04.542Z,22.67
2019-03-19T14:41:04.531Z,22.57
2019-03-19T14:42:04.558Z,22.65
2019-03-19T14:43:04.526Z,22.53
2019-03-19T14:44:04.539Z,22.53
2019-03-19T14:45:04.502Z,22.56
2019-03-19T14:46:04.501Z,22.56
2019-03-19T15:25:56.215Z,17.55
2019-03-19T15:26:56.113Z,17.46
2019-03-19T15:27:56.167Z,17.29
2019-03-19T15:28:56.122Z,16.92
2019-03-19T15:29:56.075Z,16.68
2019-03-19T15:30:56.090Z,16.48
2019-03-19T15:31:56.054Z,16.14
2019-03-19T15:32:56.146Z,15.70
2019-03-19T15:33:56.098Z,15.35
2019-03-19T15:34:56.033Z,15.13
2019-03-19T15:35:56.018Z,14.93
2019-03-19T15:36:55.996Z,14.69
2019-03-19T15:37:56.272Z,14.54
2019-03-19T15:38:55.985Z,14.31
2019-03-19T15:39:55.981Z,14.21
2019-03-19T15:40:55.978Z,14.10
2019-03-19T15:41:55.956Z,14.12
2019-03-19T15:42:55.971Z,13.99
2019-03-19T15:43:55.930Z,14.14
2019-03-19T15:44:56.034Z,14.16
2019-03-19T15:45:55.955Z,14.13
2019-03-19T15:46:55.900Z,14.13
2019-03-19T15:47:55.935Z,14.14
2019-03-19T15:48:55.923Z,14.09
2019-03-19T15:49:55.888Z,14.07
2019-03-19T15:50:55.857Z,14.02
2019-03-19T15:51:55.850Z,14.13
2019-03-19T15:52:55.845Z,14.04
2019-03-19T15:53:55.879Z,14.12
2019-03-19T15:54:55.824Z,14.14
2019-03-19T15:55:55.835Z,14.14
2019-03-19T15:56:55.894Z,14.19
2019-03-19T15:57:56.520Z,14.25
2019-03-19T15:58:55.850Z,14.16
2019-03-19T15:59:55.762Z,14.13
2019-03-19T16:00:55.752Z,14.24
2019-03-19T16:01:55.773Z,14.24
2019-03-19T16:02:55.729Z,14.38
2019-03-19T16:03:55.862Z,14.32
2019-03-19T16:04:55.723Z,14.25
2019-03-19T16:05:55.701Z,14.19
2019-03-19T16:06:55.692Z,13.99
2019-03-19T16:07:55.679Z,13.94
2019-03-19T16:08:55.695Z,13.91
2019-03-19T16:09:55.658Z,13.95
2019-03-19T16:10:55.679Z,13.87
2019-03-19T16:11:55.663Z,13.81
2019-03-19T16:12:55.706Z,13.95
2019-03-19T16:13:56.173Z,14.01
2019-03-19T16:14:55.609Z,13.98
2019-03-19T16:15:55.602Z,13.88
2019-03-19T16:16:55.626Z,13.80
2019-03-19T16:17:55.575Z,13.71
2019-03-19T16:18:55.565Z,13.61
2019-03-19T16:19:55.579Z,13.54
2019-03-19T16:20:55.553Z,13.51
2019-03-19T16:21:55.566Z,13.43
2019-03-19T16:22:55.520Z,13.46
2019-03-19T16:23:55.520Z,13.49
2019-03-19T16:24:55.510Z,13.44
2019-03-19T16:25:55.490Z,13.52
2019-03-19T16:26:56.508Z,13.41
2019-03-19T16:27:55.511Z,13.41
2019-03-19T16:28:55.553Z,13.38
2019-03-19T16:29:55.454Z,13.47
2019-03-19T16:30:55.445Z,13.46
2019-03-19T16:31:55.501Z,13.47
2019-03-19T16:32:55.431Z,13.51
2019-03-19T16:33:55.404Z,13.51
2019-03-19T16:34:55.442Z,13.44
2019-03-19T16:35:55.418Z,13.41
2019-03-19T16:36:55.413Z,13.27
2019-03-19T16:37:55.408Z,13.14
2019-03-19T16:38:55.351Z,13.14
2019-03-19T16:39:55.345Z,13.00
2019-03-19T16:40:55.372Z,13.03
2019-03-19T16:41:55.343Z,12.89
2019-03-19T16:42:55.322Z,12.82
2019-03-19T16:43:55.316Z,12.69
2019-03-19T16:44:55.303Z,12.57
2019-03-19T16:45:55.319Z,12.54
2019-03-19T16:46:55.287Z,12.56
2019-03-19T16:47:55.282Z,12.60
2019-03-19T16:48:55.251Z,12.45
2019-03-19T16:49:55.268Z,12.51
2019-03-19T16:50:56.337Z,12.48
2019-03-19T16:51:55.239Z,12.51
2019-03-19T16:52:55.233Z,12.44
2019-03-19T16:53:55.195Z,12.37
2019-03-19T16:54:55.178Z,12.45
2019-03-19T16:55:55.189Z,12.37
2019-03-19T16:56:55.179Z,12.42
2019-03-19T16:57:55.185Z,12.41
2019-03-19T16:58:55.165Z,12.39
2019-03-19T16:59:55.141Z,12.34
2019-03-19T17:00:55.150Z,12.33
2019-03-19T17:02:01.831Z,12.34
2019-03-19T17:02:56.101Z,12.34
2019-03-19T17:03:55.114Z,12.31
2019-03-19T17:04:55.071Z,12.13
2019-03-19T17:05:55.090Z,12.20
2019-03-19T17:06:55.064Z,12.11
2019-03-19T17:07:55.080Z,12.08
2019-03-19T17:08:55.030Z,12.05
2019-03-19T17:09:55.102Z,12.13
2019-03-19T17:10:55.696Z,12.11
2019-03-19T17:11:55.018Z,12.09
2019-03-19T17:12:55.056Z,12.05
2019-03-19T17:13:54.990Z,12.11
2019-03-19T17:14:55.002Z,12.12
2019-03-19T17:15:54.968Z,12.11
2019-03-19T17:16:55.005Z,12.09
2019-03-19T17:17:54.971Z,12.08
2019-03-19T17:18:54.945Z,12.01
2019-03-19T17:19:54.911Z,12.01
2019-03-19T17:20:54.904Z,12.02
2019-03-19T17:21:54.900Z,11.89
2019-03-19T17:22:55.225Z,11.90
2019-03-19T17:23:54.936Z,11.87
2019-03-19T17:24:54.869Z,11.86
2019-03-19T17:25:54.879Z,11.78
2019-03-19T17:26:54.850Z,11.77
2019-03-19T17:27:54.830Z,11.70
2019-03-19T17:28:54.842Z,11.68
2019-03-19T17:29:54.811Z,11.70
2019-03-19T17:30:54.848Z,11.70
2019-03-19T17:31:54.865Z,11.65
2019-03-19T17:32:54.770Z,11.53
2019-03-19T17:33:54.791Z,11.64
2019-03-19T17:34:54.766Z,11.54
2019-03-19T17:35:54.742Z,11.49
2019-03-19T17:36:54.789Z,11.52
2019-03-19T17:37:54.783Z,11.46
2019-03-19T17:38:54.708Z,11.44
2019-03-19T17:39:54.702Z,11.46
2019-03-19T17:40:54.699Z,11.35
2019-03-19T17:41:54.719Z,11.41
2019-03-19T17:42:54.690Z,11.35
2019-03-19T17:43:54.660Z,11.31
2019-03-19T17:44:54.668Z,11.38
2019-03-19T17:45:54.741Z,11.38
2019-03-19T17:46:54.737Z,11.29
2019-03-19T17:47:54.621Z,11.28
2019-03-19T17:48:54.606Z,11.28
2019-03-19T17:49:54.591Z,11.21
2019-03-19T17:50:54.634Z,11.29
2019-03-19T17:51:54.667Z,11.34
2019-03-19T17:52:54.657Z,11.25
2019-03-19T17:53:54.555Z,11.19
2019-03-19T17:54:54.545Z,11.25
2019-03-19T17:55:54.563Z,11.19
2019-03-19T17:56:54.528Z,11.25
2019-03-19T17:57:54.525Z,11.19
2019-03-19T17:58:54.508Z,11.25
2019-03-19T17:59:55.226Z,11.24
2019-03-19T18:00:54.504Z,11.28
2019-03-19T18:01:54.464Z,11.16
2019-03-19T18:02:54.466Z,11.24
2019-03-19T18:03:54.476Z,11.24
2019-03-19T18:04:54.514Z,11.17
2019-03-19T18:05:54.485Z,11.09
2019-03-19T18:06:54.499Z,11.09
2019-03-19T18:07:54.445Z,11.19
2019-03-19T18:08:54.446Z,11.07
2019-03-19T18:09:54.401Z,11.14
2019-03-19T18:10:54.422Z,11.03
2019-03-19T18:11:54.367Z,11.09
2019-03-19T18:12:54.356Z,11.01
2019-03-19T18:13:54.341Z,11.02
2019-03-19T18:14:54.325Z,10.98
2019-03-19T18:15:54.351Z,10.98
2019-03-19T18:16:54.302Z,10.95
2019-03-19T18:17:54.303Z,10.99
2019-03-19T18:18:54.335Z,10.92
2019-03-19T18:19:54.271Z,10.99
2019-03-19T18:20:54.305Z,10.95
2019-03-19T18:21:54.263Z,10.99
2019-03-19T18:22:54.238Z,10.95
2019-03-19T18:23:54.269Z,10.86
2019-03-19T18:24:54.221Z,10.84
2019-03-19T18:25:54.213Z,10.92
2019-03-19T18:26:54.221Z,10.81
2019-03-19T18:27:54.193Z,10.96
2019-03-19T18:28:54.211Z,10.91
2019-03-19T18:29:55.567Z,10.91
2019-03-19T18:30:54.176Z,10.88
2019-03-19T18:31:54.143Z,10.83
2019-03-19T18:32:54.158Z,10.86
2019-03-19T18:33:54.136Z,10.91
2019-03-19T18:34:54.118Z,10.83
2019-03-19T18:35:56.270Z,10.78
2019-03-19T18:36:54.100Z,10.76
2019-03-19T18:37:54.121Z,10.80
2019-03-19T18:38:54.079Z,10.81
2019-03-19T18:39:54.065Z,10.73
2019-03-19T18:40:54.057Z,10.68
2019-03-19T18:41:54.037Z,10.77
2019-03-19T18:42:54.054Z,10.70
2019-03-19T18:43:54.043Z,10.73
2019-03-19T18:44:54.025Z,10.71
2019-03-19T18:45:54.007Z,10.66
2019-03-19T18:46:54.003Z,10.66
2019-03-19T18:47:54.024Z,10.58
2019-03-19T18:48:53.966Z,10.60
2019-03-19T18:49:53.955Z,10.58
2019-03-19T18:50:53.955Z,10.55
2019-03-19T18:51:53.935Z,10.56
2019-03-19T18:52:53.953Z,10.58
2019-03-19T18:53:53.936Z,10.52
2019-03-19T18:54:53.924Z,10.47
2019-03-19T18:55:53.894Z,10.52
2019-03-19T18:56:53.890Z,10.46
2019-03-19T18:57:53.908Z,10.47
2019-03-19T18:58:53.856Z,10.40
2019-03-19T18:59:53.852Z,10.43
2019-03-19T19:00:53.879Z,10.36
2019-03-19T19:01:53.839Z,10.33
2019-03-19T19:02:53.836Z,10.34
2019-03-19T19:03:53.817Z,10.36
2019-03-19T19:04:53.818Z,10.28
2019-03-19T19:05:53.817Z,10.25
2019-03-19T19:06:53.806Z,10.26
2019-03-19T19:07:53.838Z,10.19
2019-03-19T19:08:53.804Z,10.22
2019-03-19T19:09:53.754Z,10.12
2019-03-19T19:10:53.755Z,10.09
2019-03-19T19:11:53.750Z,10.06
2019-03-19T19:12:53.720Z,9.91
2019-03-19T19:13:53.773Z,9.97
2019-03-19T19:14:53.730Z,9.81
2019-03-19T19:15:53.688Z,9.71
2019-03-19T19:16:53.690Z,9.61
2019-03-19T19:17:53.695Z,9.52
2019-03-19T19:18:53.682Z,9.56
2019-03-19T19:19:53.658Z,9.43
2019-03-19T19:20:53.661Z,9.40
2019-03-19T19:21:53.649Z,9.42
2019-03-19T19:22:53.618Z,9.32
2019-03-19T19:23:53.617Z,9.35
2019-03-19T19:24:53.583Z,9.34
2019-03-19T19:25:53.680Z,9.34
2019-03-19T19:26:53.564Z,9.30
2019-03-19T19:27:53.782Z,9.30
2019-03-19T19:28:53.572Z,9.23
2019-03-19T19:29:53.544Z,9.31
2019-03-19T19:30:53.520Z,9.24
2019-03-19T19:31:53.540Z,9.28
2019-03-19T19:33:01.463Z,9.31
2019-03-19T19:33:54.547Z,9.24
2019-03-19T19:34:53.515Z,9.31
2019-03-19T19:35:53.489Z,9.21
2019-03-19T19:36:53.470Z,9.16
2019-03-19T19:37:53.474Z,9.24
2019-03-19T19:38:53.500Z,9.18
2019-03-19T19:39:53.435Z,9.13
2019-03-19T19:40:53.487Z,9.02
2019-03-19T19:41:53.421Z,9.01
2019-03-19T19:42:53.431Z,9.12
2019-03-19T19:43:53.418Z,9.01
2019-03-19T19:44:53.813Z,9.01
2019-03-19T19:45:53.360Z,8.90
2019-03-19T19:46:53.348Z,8.84
2019-03-19T19:47:53.495Z,8.93
2019-03-19T19:48:53.750Z,8.91
2019-03-19T19:49:53.310Z,8.73
2019-03-19T19:50:53.338Z,8.73
2019-03-19T19:51:53.288Z,8.83
2019-03-19T19:52:53.333Z,8.73
2019-03-19T19:53:53.272Z,8.63
2019-03-19T19:54:53.311Z,8.69
2019-03-19T19:55:53.254Z,8.60
2019-03-19T19:56:53.241Z,8.69
2019-03-19T19:57:53.249Z,8.66
2019-03-19T19:58:53.237Z,8.63
2019-03-19T19:59:53.252Z,8.57
2019-03-19T20:00:53.209Z,8.58
2019-03-19T20:01:53.210Z,8.63
2019-03-19T20:02:54.731Z,8.60
2019-03-19T20:03:53.179Z,8.58
2019-03-19T20:05:02.486Z,8.58
2019-03-19T20:05:54.174Z,8.53
2019-03-19T20:06:53.136Z,8.51
2019-03-19T20:07:53.160Z,8.53
2019-03-19T20:08:53.140Z,8.53
2019-03-19T20:09:53.115Z,8.53
2019-03-19T20:10:53.093Z,8.47
2019-03-19T20:11:53.113Z,8.39
2019-03-19T20:12:53.123Z,8.40
2019-03-19T20:13:53.064Z,8.37
2019-03-19T20:14:53.051Z,8.37
2019-03-19T20:15:53.035Z,8.44
2019-03-19T20:16:53.042Z,8.33
2019-03-19T20:17:53.067Z,8.22
2019-03-19T20:18:53.001Z,8.15
2019-03-19T20:19:52.993Z,8.21
2019-03-19T20:20:52.974Z,8.18
2019-03-19T20:21:53.011Z,8.20
2019-03-19T20:22:52.963Z,8.12
2019-03-19T20:23:52.957Z,8.20
2019-03-19T20:24:52.940Z,8.03
2019-03-19T20:25:52.955Z,8.04
2019-03-19T20:26:52.984Z,8.04
2019-03-19T20:27:52.953Z,8.04
2019-03-19T20:28:52.909Z,8.03
2019-03-19T20:29:52.884Z,8.07
2019-03-19T20:30:52.868Z,8.03
2019-03-19T20:31:52.912Z,8.08
2019-03-19T20:32:52.887Z,7.93
2019-03-19T20:33:52.850Z,7.90
2019-03-19T20:34:52.837Z,7.90
2019-03-19T20:35:52.819Z,7.90
2019-03-19T20:36:52.802Z,7.96
2019-03-19T20:37:52.821Z,7.90
2019-03-19T20:38:52.789Z,7.82
2019-03-19T20:39:52.766Z,7.84
2019-03-19T20:40:52.761Z,7.75
2019-03-19T20:41:52.752Z,7.74
2019-03-19T20:42:52.776Z,7.77
2019-03-19T20:43:52.741Z,7.69
2019-03-19T20:44:52.748Z,7.66
2019-03-19T20:45:52.715Z,7.63
2019-03-19T20:46:52.734Z,7.67
2019-03-19T20:47:52.690Z,7.74
2019-03-19T20:48:52.710Z,7.69
2019-03-19T20:49:52.703Z,7.69
2019-03-19T20:50:52.662Z,7.59
2019-03-19T20:51:52.672Z,7.69
2019-03-19T20:52:52.667Z,7.67
2019-03-19T20:53:52.654Z,7.62
2019-03-19T20:54:52.616Z,7.72
2019-03-19T20:55:52.656Z,7.67
2019-03-19T20:56:52.641Z,7.58
2019-03-19T20:57:52.579Z,7.62
2019-03-19T20:58:52.594Z,7.50
2019-03-19T20:59:52.590Z,7.50
